sensor_id;sensor_type;location;lat;lon;timestamp;P1;durP1;ratioP1;P2;durP2;ratioP2
2031;SDS011;27625;50.422;7.944;2023-08-21T15:19:59;5.80;;;4.60;;
2031;SDS011;27625;50.422;7.944;2023-08-21T15:22:26;5.90;;;4.67;;
2031;SDS011;27625;50.422;7.944;2023-08-21T15:24:53;5.47;;;4.50;;
2031;SDS011;27625;50.422;7.944;2023-08-21T15:27:19;6.10;;;4.70;;
2031;SDS011;27625;50.422;7.944;2023-08-21T15:29:46;5.60;;;4.30;;
2031;SDS011;27625;50.422;7.944;2023-08-21T15:32:15;5.50;;;4.23;;
2031;SDS011;27625;50.422;7.944;2023-08-21T15:34:43;5.53;;;4.43;;
2031;SDS011;27625;50.422;7.944;2023-08-21T15:37:11;8.47;;;5.00;;
2031;SDS011;27625;50.422;7.944;2023-08-21T15:39:38;8.87;;;5.00;;
2031;SDS011;27625;50.422;7.944;2023-08-21T15:42:06;5.20;;;4.70;;
2031;SDS011;27625;50.422;7.944;2023-08-21T15:44:32;7.00;;;4.90;;
2031;SDS011;27625;50.422;7.944;2023-08-21T15:47:01;5.97;;;5.33;;
2031;SDS011;27625;50.422;7.944;2023-08-21T15:49:29;6.20;;;5.07;;
2031;SDS011;27625;50.422;7.944;2023-08-21T15:51:56;6.23;;;5.50;;
2031;SDS011;27625;50.422;7.944;2023-08-21T15:54:29;9.33;;;5.30;;
2031;SDS011;27625;50.422;7.944;2023-08-21T15:56:58;9.10;;;5.77;;
2031;SDS011;27625;50.422;7.944;2023-08-21T15:59:24;7.00;;;5.80;;
2031;SDS011;27625;50.422;7.944;2023-08-21T16:01:52;7.60;;;6.50;;
2031;SDS011;27625;50.422;7.944;2023-08-21T16:04:19;8.10;;;5.40;;
2031;SDS011;27625;50.422;7.944;2023-08-21T16:06:47;9.50;;;7.83;;
2031;SDS011;27625;50.422;7.944;2023-08-21T16:09:13;7.00;;;6.30;;
2031;SDS011;27625;50.422;7.944;2023-08-21T16:11:44;7.70;;;6.57;;
2031;SDS011;27625;50.422;7.944;2023-08-21T16:14:10;7.90;;;7.10;;
2031;SDS011;27625;50.422;7.944;2023-08-21T16:16:38;8.80;;;6.50;;
2031;SDS011;27625;50.422;7.944;2023-08-21T16:19:05;8.03;;;7.13;;
2031;SDS011;27625;50.422;7.944;2023-08-21T16:21:31;10.03;;;6.67;;
2031;SDS011;27625;50.422;7.944;2023-08-21T16:23:58;7.87;;;6.97;;
2031;SDS011;27625;50.422;7.944;2023-08-21T16:26:25;7.67;;;6.87;;
2031;SDS011;27625;50.422;7.944;2023-08-21T16:28:53;7.67;;;6.87;;
2031;SDS011;27625;50.422;7.944;2023-08-21T16:31:20;9.20;;;8.00;;
2031;SDS011;27625;50.422;7.944;2023-08-21T16:33:48;8.60;;;7.70;;
2031;SDS011;27625;50.422;7.944;2023-08-21T16:36:14;7.43;;;6.70;;
2031;SDS011;27625;50.422;7.944;2023-08-21T16:38:41;9.70;;;7.30;;
2031;SDS011;27625;50.422;7.944;2023-08-21T16:41:08;8.93;;;7.30;;
2031;SDS011;27625;50.422;7.944;2023-08-21T16:43:35;7.60;;;6.30;;
2031;SDS011;27625;50.422;7.944;2023-08-21T16:46:03;7.33;;;5.97;;
2031;SDS011;27625;50.422;7.944;2023-08-21T16:48:30;12.07;;;7.63;;
2031;SDS011;27625;50.422;7.944;2023-08-21T16:50:57;10.00;;;6.87;;
2031;SDS011;27625;50.422;7.944;2023-08-21T16:53:24;9.07;;;7.03;;
2031;SDS011;27625;50.422;7.944;2023-08-21T16:55:51;13.40;;;7.13;;
2031;SDS011;27625;50.422;7.944;2023-08-21T16:58:17;9.13;;;6.33;;
2031;SDS011;27625;50.422;7.944;2023-08-21T17:00:44;7.83;;;7.03;;
2031;SDS011;27625;50.422;7.944;2023-08-21T17:03:13;7.43;;;6.50;;
2031;SDS011;27625;50.422;7.944;2023-08-21T17:05:40;8.17;;;6.67;;
2031;SDS011;27625;50.422;7.944;2023-08-21T17:08:08;8.33;;;7.43;;
2031;SDS011;27625;50.422;7.944;2023-08-21T17:10:35;8.73;;;7.50;;
2031;SDS011;27625;50.422;7.944;2023-08-21T17:13:02;8.80;;;6.90;;
2031;SDS011;27625;50.422;7.944;2023-08-21T17:15:30;7.20;;;6.07;;
2031;SDS011;27625;50.422;7.944;2023-08-21T17:17:56;8.40;;;6.43;;
2031;SDS011;27625;50.422;7.944;2023-08-21T17:20:24;7.80;;;6.43;;
2031;SDS011;27625;50.422;7.944;2023-08-21T17:22:51;7.73;;;6.03;;
2031;SDS011;27625;50.422;7.944;2023-08-21T17:25:18;7.20;;;6.30;;
2031;SDS011;27625;50.422;7.944;2023-08-21T17:27:45;9.17;;;6.47;;
2031;SDS011;27625;50.422;7.944;2023-08-21T17:30:13;6.93;;;6.23;;
2031;SDS011;27625;50.422;7.944;2023-08-21T17:32:42;7.23;;;6.30;;
2031;SDS011;27625;50.422;7.944;2023-08-21T17:35:09;7.50;;;6.53;;
2031;SDS011;27625;50.422;7.944;2023-08-21T17:37:38;7.40;;;6.27;;
2031;SDS011;27625;50.422;7.944;2023-08-21T17:40:05;8.40;;;6.57;;
2031;SDS011;27625;50.422;7.944;2023-08-21T17:42:34;9.43;;;6.37;;
2031;SDS011;27625;50.422;7.944;2023-08-21T17:45:01;7.60;;;6.30;;
2031;SDS011;27625;50.422;7.944;2023-08-21T17:47:30;6.93;;;6.20;;
2031;SDS011;27625;50.422;7.944;2023-08-21T17:49:57;7.90;;;5.87;;
2031;SDS011;27625;50.422;7.944;2023-08-21T17:52:24;6.80;;;6.10;;
2031;SDS011;27625;50.422;7.944;2023-08-21T17:54:54;10.93;;;5.57;;
2031;SDS011;27625;50.422;7.944;2023-08-21T17:57:22;7.07;;;5.57;;
2031;SDS011;27625;50.422;7.944;2023-08-21T17:59:48;8.67;;;5.87;;
2031;SDS011;27625;50.422;7.944;2023-08-21T18:02:15;6.37;;;5.70;;
2031;SDS011;27625;50.422;7.944;2023-08-21T18:04:42;7.20;;;5.50;;
2031;SDS011;27625;50.422;7.944;2023-08-21T18:07:09;7.90;;;6.70;;
2031;SDS011;27625;50.422;7.944;2023-08-21T18:09:36;7.07;;;5.13;;
2031;SDS011;27625;50.422;7.944;2023-08-21T18:12:04;7.20;;;5.50;;
2031;SDS011;27625;50.422;7.944;2023-08-21T18:14:32;6.43;;;5.10;;
2031;SDS011;27625;50.422;7.944;2023-08-21T18:17:00;7.37;;;6.07;;
2031;SDS011;27625;50.422;7.944;2023-08-21T18:20:10;8.50;;;5.80;;
2031;SDS011;27625;50.422;7.944;2023-08-21T18:22:37;6.17;;;5.33;;
2031;SDS011;27625;50.422;7.944;2023-08-21T18:25:04;5.83;;;4.60;;
2031;SDS011;27625;50.422;7.944;2023-08-21T18:27:32;7.37;;;5.37;;
2031;SDS011;27625;50.422;7.944;2023-08-21T18:29:59;6.43;;;5.20;;
2031;SDS011;27625;50.422;7.944;2023-08-21T18:32:27;10.83;;;6.93;;
2031;SDS011;27625;50.422;7.944;2023-08-21T18:34:53;12.37;;;7.60;;
2031;SDS011;27625;50.422;7.944;2023-08-21T18:37:26;11.73;;;8.73;;
2031;SDS011;27625;50.422;7.944;2023-08-21T18:39:54;11.30;;;6.77;;
2031;SDS011;27625;50.422;7.944;2023-08-21T18:42:24;9.30;;;6.80;;
2031;SDS011;27625;50.422;7.944;2023-08-21T18:44:52;12.03;;;6.13;;
2031;SDS011;27625;50.422;7.944;2023-08-21T18:47:20;7.20;;;5.90;;
2031;SDS011;27625;50.422;7.944;2023-08-21T18:49:49;6.10;;;5.50;;
2031;SDS011;27625;50.422;7.944;2023-08-21T18:52:16;7.03;;;5.90;;
2031;SDS011;27625;50.422;7.944;2023-08-21T18:54:43;6.43;;;5.10;;
2031;SDS011;27625;50.422;7.944;2023-08-21T18:57:10;7.23;;;5.20;;
2031;SDS011;27625;50.422;7.944;2023-08-21T18:59:37;6.10;;;5.20;;
2031;SDS011;27625;50.422;7.944;2023-08-21T19:02:05;7.40;;;5.70;;
2031;SDS011;27625;50.422;7.944;2023-08-21T19:04:33;8.80;;;6.13;;
2031;SDS011;27625;50.422;7.944;2023-08-21T19:07:01;6.60;;;5.40;;
2031;SDS011;27625;50.422;7.944;2023-08-21T19:09:27;8.10;;;6.00;;
2031;SDS011;27625;50.422;7.944;2023-08-21T19:11:54;7.60;;;6.13;;
2031;SDS011;27625;50.422;7.944;2023-08-21T19:14:24;8.03;;;6.90;;
2031;SDS011;27625;50.422;7.944;2023-08-21T19:16:51;9.03;;;7.40;;
2031;SDS011;27625;50.422;7.944;2023-08-21T19:19:22;10.70;;;6.90;;
2031;SDS011;27625;50.422;7.944;2023-08-21T19:21:49;13.17;;;6.70;;
2031;SDS011;27625;50.422;7.944;2023-08-21T19:24:19;10.50;;;6.53;;
2031;SDS011;27625;50.422;7.944;2023-08-21T19:26:45;6.90;;;6.20;;
2031;SDS011;27625;50.422;7.944;2023-08-21T19:29:12;7.40;;;5.63;;
2031;SDS011;27625;50.422;7.944;2023-08-21T19:31:39;6.00;;;5.00;;
2031;SDS011;27625;50.422;7.944;2023-08-21T19:34:05;7.70;;;6.10;;
2031;SDS011;27625;50.422;7.944;2023-08-21T19:36:35;7.50;;;6.20;;
2031;SDS011;27625;50.422;7.944;2023-08-21T19:39:03;8.63;;;6.00;;
2031;SDS011;27625;50.422;7.944;2023-08-21T19:41:29;8.30;;;6.33;;
2031;SDS011;27625;50.422;7.944;2023-08-21T19:43:56;8.90;;;5.97;;
2031;SDS011;27625;50.422;7.944;2023-08-21T19:46:24;10.10;;;6.10;;
2031;SDS011;27625;50.422;7.944;2023-08-21T19:48:51;6.27;;;5.67;;
2031;SDS011;27625;50.422;7.944;2023-08-21T19:51:18;7.67;;;6.00;;
2031;SDS011;27625;50.422;7.944;2023-08-21T19:53:46;8.83;;;6.03;;
2031;SDS011;27625;50.422;7.944;2023-08-21T19:56:14;9.13;;;6.87;;
2031;SDS011;27625;50.422;7.944;2023-08-21T19:58:41;10.80;;;6.63;;
2031;SDS011;27625;50.422;7.944;2023-08-21T20:01:07;10.77;;;7.03;;
2031;SDS011;27625;50.422;7.944;2023-08-21T20:03:35;9.87;;;6.30;;
2031;SDS011;27625;50.422;7.944;2023-08-21T20:06:03;7.87;;;5.80;;
2031;SDS011;27625;50.422;7.944;2023-08-21T20:08:31;7.27;;;6.43;;
2031;SDS011;27625;50.422;7.944;2023-08-21T20:11:01;9.13;;;6.50;;
2031;SDS011;27625;50.422;7.944;2023-08-21T20:13:28;6.73;;;5.97;;
2031;SDS011;27625;50.422;7.944;2023-08-21T20:15:55;8.33;;;6.23;;
2031;SDS011;27625;50.422;7.944;2023-08-21T20:18:22;8.80;;;7.13;;
2031;SDS011;27625;50.422;7.944;2023-08-21T20:20:48;7.87;;;6.10;;
2031;SDS011;27625;50.422;7.944;2023-08-21T20:23:16;9.80;;;5.77;;
2031;SDS011;27625;50.422;7.944;2023-08-21T20:25:43;6.30;;;5.23;;
2031;SDS011;27625;50.422;7.944;2023-08-21T20:28:11;9.10;;;6.63;;
2031;SDS011;27625;50.422;7.944;2023-08-21T20:30:38;7.77;;;6.17;;
2031;SDS011;27625;50.422;7.944;2023-08-21T20:33:05;9.80;;;6.70;;
2031;SDS011;27625;50.422;7.944;2023-08-21T20:35:35;8.63;;;6.07;;
2031;SDS011;27625;50.422;7.944;2023-08-21T20:38:02;7.77;;;6.60;;
2031;SDS011;27625;50.422;7.944;2023-08-21T20:40:30;8.60;;;5.87;;
2031;SDS011;27625;50.422;7.944;2023-08-21T20:42:57;9.37;;;6.20;;
2031;SDS011;27625;50.422;7.944;2023-08-21T20:45:26;8.80;;;5.93;;
2031;SDS011;27625;50.422;7.944;2023-08-21T20:47:53;8.73;;;5.70;;
2031;SDS011;27625;50.422;7.944;2023-08-21T20:50:20;7.87;;;6.53;;
2031;SDS011;27625;50.422;7.944;2023-08-21T20:52:47;8.00;;;5.90;;
2031;SDS011;27625;50.422;7.944;2023-08-21T20:55:15;9.70;;;6.07;;
2031;SDS011;27625;50.422;7.944;2023-08-21T20:57:43;9.37;;;6.53;;
2031;SDS011;27625;50.422;7.944;2023-08-21T21:00:12;8.03;;;6.33;;
2031;SDS011;27625;50.422;7.944;2023-08-21T21:02:42;8.80;;;6.20;;
2031;SDS011;27625;50.422;7.944;2023-08-21T21:05:11;7.83;;;6.70;;
2031;SDS011;27625;50.422;7.944;2023-08-21T21:07:37;7.33;;;6.10;;
2031;SDS011;27625;50.422;7.944;2023-08-21T21:10:05;7.70;;;6.87;;
2031;SDS011;27625;50.422;7.944;2023-08-21T21:12:33;8.43;;;6.10;;
2031;SDS011;27625;50.422;7.944;2023-08-21T21:15:01;7.87;;;6.70;;
2031;SDS011;27625;50.422;7.944;2023-08-21T21:17:29;8.60;;;6.43;;
2031;SDS011;27625;50.422;7.944;2023-08-21T21:19:57;8.80;;;6.60;;
2031;SDS011;27625;50.422;7.944;2023-08-21T21:22:24;8.57;;;6.77;;
2031;SDS011;27625;50.422;7.944;2023-08-21T21:24:52;9.27;;;6.50;;
2031;SDS011;27625;50.422;7.944;2023-08-21T21:27:19;12.50;;;7.40;;
2031;SDS011;27625;50.422;7.944;2023-08-21T21:29:45;9.10;;;6.60;;
2031;SDS011;27625;50.422;7.944;2023-08-21T21:32:13;9.20;;;6.33;;
2031;SDS011;27625;50.422;7.944;2023-08-21T21:34:41;8.43;;;6.03;;
2031;SDS011;27625;50.422;7.944;2023-08-21T21:37:13;11.20;;;7.07;;
2031;SDS011;27625;50.422;7.944;2023-08-21T21:39:40;8.40;;;6.50;;
2031;SDS011;27625;50.422;7.944;2023-08-21T21:42:06;7.43;;;6.50;;
